Flight Track Log - Related Links

Times and Time Zones

All times are in EDT time to prevent confusion due to time zone crossing. See the N508QS flight status page for this flight to view local times or setup timezone preferences in your user account.

Time Position Orientation Groundspeed Altitude Reporting Facility
EDT Latitude Longitude Course Direction KTS MPH feet Rate Location/Type
Sun 10:42:02 AM 41.7981 -87.6839 85° East 201 231 3,300  Level Chicago Center
Sun 10:43:04 AM 41.7947 -87.5933 93° East 232 267 5,000 2,878 Climbing Chicago Center
Sun 10:44:05 AM 41.7992 -87.4689 87° East 269 310 9,200 3,805 Climbing Chicago Center
Sun 10:45:07 AM 41.8022 -87.3625 88° East 283 326 12,800 2,806 Climbing Chicago Center
Sun 10:46:09 AM 41.7853 -87.2442 101° East 312 359 15,000 2,371 Climbing Chicago Center
Sun 10:47:00 AM 41.7514 -86.7950 85° East  Level FlightAware Approximate
Sun 10:47:11 AM 41.7656 -87.1006 100° East 375 432 17,700  Level Chicago Center
Sun 10:48:12 AM 41.7608 -86.9475 92° East 408 470 20,300 2,488 Climbing Chicago Center
Sun 10:49:14 AM 41.7639 -86.7850 89° East 434 499 22,800 2,613 Climbing Chicago Center
Sun 10:50:16 AM 41.7658 -86.6092 89° East 458 527 25,700 2,516 Climbing Chicago Center
Sun 10:51:18 AM 41.7669 -86.4325 89° East 473 544 28,000 2,390 Climbing Chicago Center
Sun 10:52:19 AM 41.7853 -86.2156 83° East 489 563 30,600 2,634 Climbing Chicago Center
Sun 10:53:21 AM 41.8169 -86.0356 77° East 495 570 33,400 2,661 Climbing Chicago Center
Sun 10:54:23 AM 41.8469 -85.8603 77° East 484 557 36,100 2,129 Climbing Chicago Center
Sun 10:55:25 AM 41.8761 -85.6847 77° East 479 551 37,800 1,610 Climbing Chicago Center
Sun 10:56:26 AM 41.9075 -85.5044 77° East 487 560 39,400 1,366 Climbing Chicago Center
Sun 10:57:28 AM 41.9381 -85.3208 77° East 496 571 40,600 774 Climbing Chicago Center
Sun 10:58:30 AM 41.9519 -85.1325 84° East 510 587 41,000 195 Climbing Chicago Center
Sun 10:59:31 AM 41.9517 -84.9414 90° East 513 590 41,000  Level Chicago Center
Sun 11:00:33 AM 41.9492 -84.7469 91° East 518 596 41,000  Level Chicago Center
Sun 11:01:36 AM 41.9508 -84.5200 89° East 507 583 41,000  Level Chicago Center
Sun 11:02:38 AM 41.9536 -84.3286 89° East 513 590 41,000  Level Chicago Center
Sun 11:03:07 AM 41.9519 -84.2325 91° East 505 581 41,000  Level Cleveland Center
Sun 11:04:07 AM 41.9558 -84.0428 88° East 500 575 41,000  Level Cleveland Center
Sun 11:05:07 AM 41.9572 -83.8503 89° East 500 575 41,000  Level Cleveland Center
Sun 11:06:07 AM 41.9561 -83.6603 90° East 500 575 41,000 250 Level Cleveland Center
Sun 11:07:07 AM 41.9586 -83.4844 89° East 507 583 41,500 500 Climbing Cleveland Center
Sun 11:08:07 AM 41.9614 -83.2892 89° East 519 597 42,000 550 Climbing Cleveland Center
Sun 11:09:07 AM 41.9617 -83.0881 90° East 519 597 42,600 500 Climbing Cleveland Center
Sun 11:10:07 AM 41.9636 -82.8953 89° East 519 597 43,000 200 Climbing Cleveland Center
Sun 11:11:07 AM 41.9653 -82.7028 89° East 514 592 43,000  Level Cleveland Center
Sun 11:12:07 AM 41.9625 -82.5100 91° East 514 592 43,000  Level Cleveland Center
Sun 11:13:08 AM 41.9614 -82.3117 90° East 514 592 43,000  Level Cleveland Center
Sun 11:14:07 AM 41.9644 -82.0994 89° East 514 592 43,000  Level Cleveland Center
Sun 11:15:07 AM 41.9628 -81.9039 91° East 519 597 43,000  Level Cleveland Center
Sun 11:16:07 AM 41.9628 -81.7086 90° East 519 597 43,000  Level Cleveland Center
Sun 11:17:07 AM 41.9603 -81.5131 91° East 519 597 43,000  Level Cleveland Center
Sun 11:18:07 AM 41.9575 -81.3175 91° East 519 597 43,000  Level Cleveland Center
Sun 11:19:07 AM 41.9564 -81.1444 90° East 519 597 43,000  Level Cleveland Center
Sun 11:20:07 AM 41.9489 -80.9489 93° East 514 592 43,000  Level Cleveland Center
Sun 11:21:07 AM 41.9411 -80.7561 93° East 522 601 43,000  Level Cleveland Center
Sun 11:22:07 AM 41.9286 -80.5608 95° East 517 595 43,000  Level Cleveland Center
Sun 11:23:07 AM 41.9181 -80.3628 94° East 522 601 43,000  Level Cleveland Center
Sun 11:24:07 AM 41.9028 -80.1508 95° East 522 601 43,000  Level Cleveland Center
Sun 11:25:07 AM 41.8917 -79.9583 94° East 516 594 43,000  Level Cleveland Center
Sun 11:26:07 AM 41.8800 -79.7606 94° East 521 600 43,000  Level Cleveland Center
Sun 11:27:07 AM 41.8661 -79.5878 96° East 521 600 43,000  Level Cleveland Center
Sun 11:28:07 AM 41.8558 -79.3928 94° East 521 600 43,000  Level Cleveland Center
Sun 11:29:07 AM 41.8431 -79.1783 95° East 521 600 43,000  Level Cleveland Center
Sun 11:30:07 AM 41.8258 -78.9808 97° East 521 600 43,000  Level Cleveland Center
Sun 11:31:07 AM 41.8128 -78.8031 96° East 521 600 43,000  Level Cleveland Center
Sun 11:32:07 AM 41.7992 -78.6056 95° East 521 600 43,000 -550 Level Cleveland Center
Sun 11:33:07 AM 41.7831 -78.4111 96° East 526 605 41,900 -1,150 Descending Cleveland Center
Sun 11:34:07 AM 41.7669 -78.2250 97° East 518 596 40,700 -1,938 Descending Cleveland Center
Sun 11:36:19 AM 41.7342 -77.7981 96° East 505 581 35,700 -1,781 Descending New York Center
Sun 11:37:19 AM 41.7183 -77.6072 96° East 505 581 35,000 -350 Descending New York Center
Sun 11:38:19 AM 41.7019 -77.4194 97° East 505 581 35,000 -458 Level New York Center
Sun 11:39:17 AM 41.6853 -77.2317 97° East 505 581 34,100 -958 Descending New York Center
Sun 11:40:18 AM 41.6514 -77.0450 104° East 505 581 33,100 -992 Descending New York Center
Sun 11:41:18 AM 41.6003 -76.8683 111° Southeast 510 587 32,100 -893 Descending New York Center
Sun 11:42:19 AM 41.5617 -76.7261 110° East 510 587 31,300 -1,587 Descending New York Center
Sun 11:43:19 AM 41.5106 -76.5361 110° East 510 587 28,900 -2,281 Descending New York Center
Sun 11:44:20 AM 41.4647 -76.3631 109° East 499 574 26,700 -2,218 Descending New York Center
Sun 11:45:18 AM 41.4186 -76.1906 110° East 494 568 24,500 -2,186 Descending New York Center
Sun 11:46:18 AM 41.3697 -76.0289 112° Southeast 483 556 22,400 -2,100 Descending New York Center
Sun 11:47:18 AM 41.3186 -75.8592 112° Southeast 461 531 20,300 -2,132 Descending New York Center
Sun 11:48:19 AM 41.2750 -75.7069 111° Southeast 450 518 18,100 -2,529 Descending New York Center
Sun 11:49:19 AM 41.2292 -75.5600 112° Southeast 434 499 15,200 -1,576 Descending New York Center
Sun 11:50:17 AM 41.1844 -75.4244 114° Southeast 423 487 15,000 -458 Descending New York Center
Sun 11:51:17 AM 41.1378 -75.2892 115° Southeast 410 472 14,300 -1,785 Descending New York Center
Sun 11:52:18 AM 41.1006 -75.1711 113° Southeast 397 457 11,400 -2,902 Descending New York Center
Sun 11:53:19 AM 41.0592 -75.0500 114° Southeast 342 394 8,400 -2,529 Descending New York Center
Sun 11:54:19 AM 41.0250 -74.9544 115° Southeast 321 369 6,300 -1,289 Descending New York Center
Sun 11:55:20 AM 40.9975 -74.8508 109° East 301 346 5,800 -814 Descending New York Center
Sun 11:56:17 AM 41.0114 -74.7417 80° East 273 314 4,700 -915 Descending New York Center
Sun 11:57:18 AM 41.0228 -74.6572 80° East 267 307 4,000 -344 Descending New York Center
Sun 11:58:19 AM 41.0406 -74.5564 77° East 256 295 4,000 -347 Level New York Center
Sun 11:59:19 AM 41.0436 -74.4575 88° East 256 295 3,300 -496 Descending New York Center
Sun 12:00:20 PM 41.0339 -74.3664 98° East 258 297 3,000 -188 Descending New York Center
Sun 12:00:55 PM 41.0333 -74.3167 91° East 257 296 3,000 -63 Level New York TRACON
Sun 12:01:55 PM 41.0167 -74.2167 102° East 242 278 2,900 -500 Descending New York TRACON
Sun 12:02:55 PM 41.0167 -74.1333 90° East 214 246 2,000 -450 Descending New York TRACON
Sun 12:03:55 PM 41.0000 -74.0833 114° Southeast 178 205 2,000 -50 Level New York TRACON
Sun 12:04:54 PM 40.9500 -74.0500 153° Southeast 168 193 1,900 -504 Descending New York TRACON
Sun 12:05:54 PM 40.9000 -74.0500 180° South 164 189 1,000 -835 Descending New York TRACON
Sun 12:06:49 PM 40.8667 -74.0500 180° South 140 161 300 1,463 Descending New York TRACON
Sun 12:09:19 PM 40.7656 -74.0725 190° South 156 180 6,000 1,629 Climbing New York Center
Sun 12:10:19 PM 40.7236 -74.0761 184° South 156 180 6,000  Level New York Center
Sun 12:11:17 PM 40.6903 -74.0800 185° South 156 180 6,000  Level New York Center

Login

Don't have an account? Register now (free) for customized features, flight alerts, and more!